Time;durP1;ratioP1;P1;durP2;ratioP2;P2;SDS_P1;SDS_P2;PMS_P1;PMS_P2;Temp;Humidity;BMP_temperature;BMP_pressure;BME280_temperature;BME280_humidity;BME280_pressure;Samples;Min_cycle;Max_cycle;Signal;HPM_P1;HPM_P2
2023/05/29 00:00:59;;;;;;;4.83;4.53;;;;;;;;;;5041195;28;20430;-68
2023/05/29 00:03:25;;;;;;;4.70;4.27;;;;;;;;;;5054507;28;20431;-68
2023/05/29 00:05:52;;;;;;;9.00;3.80;;;;;;;;;;5040465;28;20441;-68
2023/05/29 00:08:18;;;;;;;7.40;4.33;;;;;;;;;;5039147;28;20491;-68
2023/05/29 00:10:44;;;;;;;9.57;6.70;;;;;;;;;;5041483;28;20445;-68
2023/05/29 00:13:10;;;;;;;15.33;7.37;;;;;;;;;;5040755;28;20426;-68
2023/05/29 00:15:36;;;;;;;6.67;5.60;;;;;;;;;;5040115;28;20508;-68
2023/05/29 00:18:02;;;;;;;8.87;5.37;;;;;;;;;;5040282;28;20970;-68
2023/05/29 00:20:28;;;;;;;5.37;4.87;;;;;;;;;;5040590;28;20520;-68
2023/05/29 00:22:55;;;;;;;9.67;5.60;;;;;;;;;;5038437;28;20428;-68
2023/05/29 00:25:21;;;;;;;6.97;5.40;;;;;;;;;;5040011;28;20430;-68
2023/05/29 00:27:47;;;;;;;7.57;4.40;;;;;;;;;;5039859;28;20551;-68
2023/05/29 00:30:13;;;;;;;15.43;5.60;;;;;;;;;;5040888;28;20444;-68
2023/05/29 00:32:39;;;;;;;7.93;6.10;;;;;;;;;;5040058;28;20505;-68
2023/05/29 00:35:05;;;;;;;9.17;5.03;;;;;;;;;;5039467;28;20458;-68
2023/05/29 00:37:31;;;;;;;6.40;4.83;;;;;;;;;;5039027;28;20453;-68
2023/05/29 00:39:57;;;;;;;5.23;4.63;;;;;;;;;;5040611;28;20430;-68
2023/05/29 00:42:23;;;;;;;5.13;4.27;;;;;;;;;;5040128;28;20468;-68
2023/05/29 00:44:49;;;;;;;5.47;4.20;;;;;;;;;;5040221;28;20492;-68
2023/05/29 00:47:16;;;;;;;6.20;4.53;;;;;;;;;;5039961;28;20478;-68
2023/05/29 00:49:42;;;;;;;6.43;5.87;;;;;;;;;;5040335;28;20480;-68
2023/05/29 00:52:10;;;;;;;4.43;4.00;;;;;;;;;;5039836;28;20418;-68
2023/05/29 00:54:36;;;;;;;6.43;3.57;;;;;;;;;;5040224;28;20423;-68
2023/05/29 00:57:03;;;;;;;9.20;4.70;;;;;;;;;;5038660;28;20426;-68
2023/05/29 00:59:33;;;;;;;7.27;5.43;;;;;;;;;;5040630;28;20433;-68
2023/05/29 01:02:01;;;;;;;11.53;5.50;;;;;;;;;;5039668;28;20484;-67
2023/05/29 01:04:27;;;;;;;4.80;4.30;;;;;;;;;;5040150;28;20410;-68
2023/05/29 01:06:53;;;;;;;3.30;3.10;;;;;;;;;;5038628;28;20516;-68
2023/05/29 01:09:19;;;;;;;5.20;4.23;;;;;;;;;;5038480;28;20465;-68
2023/05/29 01:11:46;;;;;;;7.33;4.63;;;;;;;;;;5039421;28;20469;-68
2023/05/29 01:14:17;;;;;;;5.80;4.33;;;;;;;;;;5038779;28;20478;-68
2023/05/29 01:16:52;;;;;;;4.40;4.20;;;;;;;;;;5033826;28;20435;-68
2023/05/29 01:19:36;;;;;;;4.63;4.30;;;;;;;;;;5036218;28;20457;-68
2023/05/29 01:22:14;;;;;;;4.90;3.10;;;;;;;;;;5035173;28;20540;-68
2023/05/29 01:24:52;;;;;;;8.30;4.43;;;;;;;;;;5024046;28;20447;-68
2023/05/29 01:27:18;;;;;;;5.50;4.33;;;;;;;;;;5023848;28;20475;-68
2023/05/29 01:29:46;;;;;;;8.20;4.20;;;;;;;;;;5025336;28;20938;-68
2023/05/29 01:32:12;;;;;;;6.60;5.10;;;;;;;;;;5026817;28;20447;-68
2023/05/29 01:34:38;;;;;;;4.70;4.30;;;;;;;;;;5025371;28;20435;-68
2023/05/29 01:37:04;;;;;;;5.20;4.40;;;;;;;;;;5024241;28;20530;-68
2023/05/29 01:39:31;;;;;;;4.23;3.83;;;;;;;;;;5024588;28;20463;-68
2023/05/29 01:41:58;;;;;;;4.30;4.10;;;;;;;;;;5024701;28;20470;-68
2023/05/29 01:44:24;;;;;;;6.47;4.77;;;;;;;;;;5026160;28;20522;-68
2023/05/29 01:46:50;;;;;;;7.37;4.10;;;;;;;;;;5023707;28;20481;-68
2023/05/29 01:49:17;;;;;;;10.57;4.60;;;;;;;;;;5024714;28;20516;-68
2023/05/29 01:51:44;;;;;;;5.40;3.90;;;;;;;;;;5023647;28;20451;-68
2023/05/29 01:54:11;;;;;;;7.03;4.20;;;;;;;;;;5026183;28;20451;-67
2023/05/29 01:56:37;;;;;;;5.13;4.40;;;;;;;;;;5024227;28;20935;-68
2023/05/29 01:59:03;;;;;;;7.23;5.10;;;;;;;;;;5024618;28;20546;-68
2023/05/29 02:01:29;;;;;;;6.63;4.47;;;;;;;;;;5023468;28;21046;-68
2023/05/29 02:03:55;;;;;;;4.43;4.13;;;;;;;;;;5024683;28;20525;-68
2023/05/29 02:06:21;;;;;;;6.23;4.30;;;;;;;;;;5022946;28;20553;-68
2023/05/29 02:08:47;;;;;;;4.50;4.30;;;;;;;;;;5023997;28;20482;-68
2023/05/29 02:11:14;;;;;;;8.03;3.77;;;;;;;;;;5024187;28;20550;-68
2023/05/29 02:13:40;;;;;;;5.10;4.67;;;;;;;;;;5024553;28;20439;-68
2023/05/29 02:16:06;;;;;;;5.50;5.00;;;;;;;;;;5024986;28;20469;-68
2023/05/29 02:18:32;;;;;;;5.10;4.70;;;;;;;;;;5024359;28;20490;-68
2023/05/29 02:20:57;;;;;;;4.67;4.27;;;;;;;;;;5023686;28;20442;-68
2023/05/29 02:23:23;;;;;;;5.43;4.93;;;;;;;;;;5021685;28;20525;-68
2023/05/29 02:25:49;;;;;;;5.10;4.60;;;;;;;;;;5025201;28;20531;-68
2023/05/29 02:28:15;;;;;;;7.07;3.80;;;;;;;;;;5023387;28;20479;-68
2023/05/29 02:30:41;;;;;;;6.80;4.53;;;;;;;;;;5024052;28;21056;-68
2023/05/29 02:33:08;;;;;;;9.40;5.30;;;;;;;;;;5023202;28;20488;-68
2023/05/29 02:35:34;;;;;;;4.33;3.80;;;;;;;;;;5023773;28;20822;-68
2023/05/29 02:38:01;;;;;;;5.43;4.80;;;;;;;;;;5022870;28;20454;-68
2023/05/29 02:40:27;;;;;;;4.67;4.30;;;;;;;;;;5023657;28;20488;-68
2023/05/29 02:42:53;;;;;;;3.77;3.20;;;;;;;;;;5023522;28;20443;-68
2023/05/29 02:45:19;;;;;;;6.03;4.90;;;;;;;;;;5023973;28;20562;-68
2023/05/29 02:47:45;;;;;;;5.40;4.83;;;;;;;;;;5022778;28;20486;-68
2023/05/29 02:50:14;;;;;;;5.10;4.40;;;;;;;;;;5023740;28;20462;-68
2023/05/29 02:52:40;;;;;;;5.20;4.70;;;;;;;;;;5023148;28;20447;-68
2023/05/29 02:55:07;;;;;;;4.73;4.17;;;;;;;;;;5024317;28;20465;-68
2023/05/29 02:57:33;;;;;;;4.17;3.87;;;;;;;;;;5023218;28;20442;-68
2023/05/29 03:00:00;;;;;;;7.33;4.60;;;;;;;;;;5023717;28;20526;-68
2023/05/29 03:02:26;;;;;;;7.20;4.80;;;;;;;;;;5023096;28;20928;-68
2023/05/29 03:04:53;;;;;;;4.90;4.30;;;;;;;;;;5023770;28;20438;-68
2023/05/29 03:07:20;;;;;;;5.93;4.00;;;;;;;;;;5022932;28;20544;-68
2023/05/29 03:09:46;;;;;;;5.80;4.90;;;;;;;;;;5023882;28;20442;-68
2023/05/29 03:12:12;;;;;;;5.50;4.67;;;;;;;;;;5023848;28;20438;-68
2023/05/29 03:14:37;;;;;;;6.80;4.63;;;;;;;;;;5022958;28;20451;-68
2023/05/29 03:17:07;;;;;;;6.57;5.30;;;;;;;;;;5023525;28;20446;-68
2023/05/29 03:19:33;;;;;;;7.40;5.17;;;;;;;;;;5023155;28;20443;-68
2023/05/29 03:21:59;;;;;;;6.20;4.70;;;;;;;;;;5022928;28;20439;-68
2023/05/29 03:24:25;;;;;;;12.53;4.43;;;;;;;;;;5024712;28;20439;-68
2023/05/29 03:26:51;;;;;;;5.00;4.70;;;;;;;;;;5023220;28;20454;-68
2023/05/29 03:29:17;;;;;;;9.37;4.33;;;;;;;;;;5023547;28;20422;-68
2023/05/29 03:31:44;;;;;;;4.63;4.23;;;;;;;;;;5023081;28;20447;-68
2023/05/29 03:34:10;;;;;;;6.23;5.00;;;;;;;;;;5024017;28;20443;-68
2023/05/29 03:36:36;;;;;;;5.60;4.03;;;;;;;;;;5023292;28;20931;-68
2023/05/29 03:39:03;;;;;;;5.23;4.73;;;;;;;;;;5022204;28;20530;-68
2023/05/29 03:41:29;;;;;;;5.27;3.80;;;;;;;;;;5023897;28;20593;-68
2023/05/29 03:43:55;;;;;;;4.27;3.57;;;;;;;;;;5024093;28;20440;-68
2023/05/29 03:46:21;;;;;;;4.40;4.10;;;;;;;;;;5023023;28;20858;-68
2023/05/29 03:48:47;;;;;;;7.97;4.30;;;;;;;;;;5022309;28;20490;-68
2023/05/29 03:51:13;;;;;;;7.93;4.60;;;;;;;;;;5022497;28;20926;-68
2023/05/29 03:53:39;;;;;;;4.70;4.20;;;;;;;;;;5024204;28;20458;-68
2023/05/29 03:56:05;;;;;;;5.97;4.87;;;;;;;;;;5023310;28;20430;-68
2023/05/29 03:58:31;;;;;;;7.20;5.00;;;;;;;;;;5023025;28;20458;-68
2023/05/29 04:00:57;;;;;;;4.60;4.27;;;;;;;;;;5022233;28;20803;-68
2023/05/29 04:03:23;;;;;;;4.90;4.60;;;;;;;;;;5022753;28;20447;-68
2023/05/29 04:05:49;;;;;;;4.60;4.30;;;;;;;;;;5022863;28;20501;-68
2023/05/29 04:08:15;;;;;;;4.60;4.20;;;;;;;;;;5023122;28;20577;-68
2023/05/29 04:10:41;;;;;;;4.80;4.40;;;;;;;;;;5023805;28;21858;-68
2023/05/29 04:13:07;;;;;;;4.57;4.37;;;;;;;;;;5026818;28;20465;-68
2023/05/29 04:15:33;;;;;;;5.13;4.73;;;;;;;;;;5025928;28;20534;-67
2023/05/29 04:17:59;;;;;;;5.33;3.50;;;;;;;;;;5026436;28;21025;-68
2023/05/29 04:20:25;;;;;;;3.97;3.67;;;;;;;;;;5025021;28;20497;-68
2023/05/29 04:22:52;;;;;;;3.70;3.60;;;;;;;;;;5026250;28;20446;-68
2023/05/29 04:25:18;;;;;;;4.97;4.23;;;;;;;;;;5026799;28;20550;-68
2023/05/29 04:27:48;;;;;;;3.10;2.90;;;;;;;;;;5026574;28;20537;-68
2023/05/29 04:30:14;;;;;;;3.77;3.57;;;;;;;;;;5026132;28;20534;-68
2023/05/29 04:32:40;;;;;;;6.17;3.57;;;;;;;;;;5025982;28;20467;-69
2023/05/29 04:35:06;;;;;;;6.40;4.27;;;;;;;;;;5026067;28;21279;-68
2023/05/29 04:37:37;;;;;;;3.30;3.20;;;;;;;;;;5025570;28;20819;-68
2023/05/29 04:40:10;;;;;;;4.53;4.10;;;;;;;;;;5026832;28;20439;-68
2023/05/29 04:42:44;;;;;;;4.17;3.87;;;;;;;;;;5025304;28;20618;-68
2023/05/29 04:45:10;;;;;;;3.93;3.33;;;;;;;;;;5025425;28;20434;-68
2023/05/29 04:47:43;;;;;;;3.80;3.50;;;;;;;;;;5024773;28;20502;-68
2023/05/29 04:50:12;;;;;;;2.83;2.73;;;;;;;;;;5026476;28;20441;-68
2023/05/29 04:52:38;;;;;;;9.63;3.60;;;;;;;;;;5025270;28;20443;-68
2023/05/29 04:55:05;;;;;;;6.73;3.17;;;;;;;;;;5025360;28;20496;-68
2023/05/29 04:57:31;;;;;;;4.30;4.10;;;;;;;;;;5025534;28;20431;-67
2023/05/29 04:59:57;;;;;;;7.03;4.33;;;;;;;;;;5026058;28;20947;-68
2023/05/29 05:02:23;;;;;;;4.97;4.57;;;;;;;;;;5024456;28;20442;-67
2023/05/29 05:04:50;;;;;;;3.43;3.13;;;;;;;;;;5025543;28;22165;-68
2023/05/29 05:07:16;;;;;;;12.77;3.90;;;;;;;;;;5024822;28;20549;-68
2023/05/29 05:09:42;;;;;;;4.97;4.30;;;;;;;;;;5026323;28;20459;-67
2023/05/29 05:12:08;;;;;;;4.70;4.40;;;;;;;;;;5024733;28;20435;-68
2023/05/29 05:14:35;;;;;;;7.60;4.10;;;;;;;;;;5025298;28;20987;-68
2023/05/29 05:17:01;;;;;;;3.60;3.30;;;;;;;;;;5024655;28;20446;-67
2023/05/29 05:19:26;;;;;;;3.73;3.40;;;;;;;;;;5025448;28;20477;-67
2023/05/29 05:21:52;;;;;;;3.67;3.33;;;;;;;;;;5024526;28;20419;-68
2023/05/29 05:24:18;;;;;;;5.77;4.70;;;;;;;;;;5025335;28;20439;-68
2023/05/29 05:26:44;;;;;;;3.47;3.27;;;;;;;;;;5025090;28;20899;-68
2023/05/29 05:29:10;;;;;;;6.03;3.90;;;;;;;;;;5041390;28;20534;-67
2023/05/29 05:31:36;;;;;;;4.13;3.67;;;;;;;;;;5024488;28;20450;-68
2023/05/29 05:34:02;;;;;;;7.37;4.53;;;;;;;;;;5022181;28;20442;-68
2023/05/29 05:36:28;;;;;;;4.43;4.00;;;;;;;;;;5024131;28;20411;-68
2023/05/29 05:38:54;;;;;;;6.07;3.97;;;;;;;;;;5025170;28;20436;-68
2023/05/29 05:41:21;;;;;;;4.73;3.77;;;;;;;;;;5023646;28;20582;-67
2023/05/29 05:43:47;;;;;;;6.07;4.23;;;;;;;;;;5024897;28;20526;-67
2023/05/29 05:46:13;;;;;;;3.83;3.57;;;;;;;;;;5024261;28;20470;-67
2023/05/29 05:48:40;;;;;;;4.97;4.37;;;;;;;;;;5025047;28;20515;-68
2023/05/29 05:51:07;;;;;;;16.17;3.30;;;;;;;;;;5023826;28;20428;-68
2023/05/29 05:53:33;;;;;;;6.90;4.50;;;;;;;;;;5022059;28;20448;-67
2023/05/29 05:56:00;;;;;;;6.20;3.60;;;;;;;;;;5023493;28;20436;-68
2023/05/29 05:58:26;;;;;;;3.90;3.50;;;;;;;;;;5024081;28;20451;-68
2023/05/29 06:00:52;;;;;;;4.43;4.13;;;;;;;;;;5024603;28;22318;-68
2023/05/29 06:03:18;;;;;;;5.03;4.40;;;;;;;;;;5022461;28;20442;-68
2023/05/29 06:05:44;;;;;;;4.73;4.10;;;;;;;;;;5023346;28;20443;-68
2023/05/29 06:08:10;;;;;;;6.73;4.20;;;;;;;;;;5023700;28;20486;-68
2023/05/29 06:10:36;;;;;;;10.20;6.20;;;;;;;;;;5023333;28;20811;-69
2023/05/29 06:13:02;;;;;;;4.33;4.00;;;;;;;;;;5024085;28;20514;-68
2023/05/29 06:15:28;;;;;;;6.70;4.37;;;;;;;;;;5024962;28;20415;-69
2023/05/29 06:17:55;;;;;;;7.57;4.33;;;;;;;;;;5024559;28;21050;-68
2023/05/29 06:20:21;;;;;;;6.57;3.90;;;;;;;;;;5023365;28;20931;-69
2023/05/29 06:22:50;;;;;;;4.43;3.83;;;;;;;;;;5024065;28;20423;-69
2023/05/29 06:25:18;;;;;;;3.63;3.37;;;;;;;;;;5024133;28;21075;-68
2023/05/29 06:27:44;;;;;;;3.70;3.50;;;;;;;;;;5039294;28;20521;-69
2023/05/29 06:30:11;;;;;;;4.73;4.37;;;;;;;;;;5024528;28;20427;-68
2023/05/29 06:32:37;;;;;;;4.70;4.17;;;;;;;;;;5022769;28;20423;-69
2023/05/29 06:35:03;;;;;;;10.20;3.60;;;;;;;;;;5023180;28;20848;-68
2023/05/29 06:37:29;;;;;;;3.30;3.00;;;;;;;;;;5023160;28;20518;-69
2023/05/29 06:39:55;;;;;;;7.67;4.43;;;;;;;;;;5026723;28;20522;-67
2023/05/29 06:42:21;;;;;;;15.57;4.23;;;;;;;;;;5027448;28;20768;-67
2023/05/29 06:44:47;;;;;;;3.83;3.57;;;;;;;;;;5011977;28;20432;-68
2023/05/29 06:47:13;;;;;;;3.10;2.90;;;;;;;;;;5031573;28;20486;-68
2023/05/29 06:49:39;;;;;;;4.50;3.87;;;;;;;;;;5018688;28;20474;-68
2023/05/29 06:52:05;;;;;;;3.40;3.20;;;;;;;;;;5011259;28;20420;-68
2023/05/29 06:54:31;;;;;;;16.80;3.73;;;;;;;;;;5011950;28;20431;-68
2023/05/29 06:56:57;;;;;;;7.20;3.63;;;;;;;;;;5018436;28;20465;-68
2023/05/29 06:59:24;;;;;;;5.30;3.40;;;;;;;;;;5023318;28;20575;-68
2023/05/29 07:01:50;;;;;;;14.77;3.60;;;;;;;;;;5043723;28;20446;-68
2023/05/29 07:04:16;;;;;;;3.20;3.10;;;;;;;;;;5025216;28;20440;-68
2023/05/29 07:06:42;;;;;;;3.53;3.33;;;;;;;;;;5032902;28;20534;-68
2023/05/29 07:09:08;;;;;;;4.10;3.17;;;;;;;;;;5024044;28;20500;-67
2023/05/29 07:11:34;;;;;;;4.63;3.30;;;;;;;;;;5031361;28;20440;-68
2023/05/29 07:14:00;;;;;;;3.80;3.33;;;;;;;;;;5025087;28;20605;-68
2023/05/29 07:16:26;;;;;;;3.60;3.30;;;;;;;;;;5024052;28;20419;-68
2023/05/29 07:18:52;;;;;;;5.20;3.20;;;;;;;;;;5033346;28;21029;-68
2023/05/29 07:21:20;;;;;;;4.20;3.80;;;;;;;;;;5025722;28;20431;-67
2023/05/29 07:23:46;;;;;;;3.30;3.00;;;;;;;;;;5023065;28;20451;-68
2023/05/29 07:26:12;;;;;;;9.27;2.87;;;;;;;;;;5023618;28;20439;-68
2023/05/29 07:28:38;;;;;;;5.80;3.53;;;;;;;;;;5022329;28;20482;-67
2023/05/29 07:31:04;;;;;;;3.50;3.00;;;;;;;;;;5022637;28;20446;-68
2023/05/29 07:33:30;;;;;;;7.60;3.30;;;;;;;;;;5033822;28;20464;-69
2023/05/29 07:35:56;;;;;;;3.50;3.20;;;;;;;;;;5037918;28;20426;-69
2023/05/29 07:38:22;;;;;;;3.30;3.00;;;;;;;;;;5035175;28;20497;-68
2023/05/29 07:40:48;;;;;;;5.90;4.00;;;;;;;;;;5037230;28;20439;-68
2023/05/29 07:43:14;;;;;;;3.33;3.03;;;;;;;;;;5037012;28;20434;-67
2023/05/29 07:45:40;;;;;;;3.40;3.20;;;;;;;;;;5037881;28;20492;-68
2023/05/29 07:48:06;;;;;;;3.33;3.03;;;;;;;;;;5039738;28;20486;-68
2023/05/29 07:50:32;;;;;;;5.33;3.30;;;;;;;;;;5040605;28;20980;-67
2023/05/29 07:53:00;;;;;;;3.33;3.07;;;;;;;;;;5041824;28;20419;-67
2023/05/29 07:55:26;;;;;;;3.80;3.50;;;;;;;;;;5041211;28;20543;-68
2023/05/29 07:57:52;;;;;;;2.73;2.53;;;;;;;;;;5041301;28;20834;-68
2023/05/29 08:00:18;;;;;;;3.73;3.40;;;;;;;;;;5055134;28;20874;-68
2023/05/29 08:02:45;;;;;;;3.70;2.97;;;;;;;;;;5040999;28;20434;-68
2023/05/29 08:05:12;;;;;;;6.10;3.30;;;;;;;;;;5041564;28;20434;-68
2023/05/29 08:07:38;;;;;;;5.30;3.17;;;;;;;;;;5040417;28;20572;-67
2023/05/29 08:10:05;;;;;;;5.77;3.90;;;;;;;;;;5041251;28;20960;-67
2023/05/29 08:12:31;;;;;;;3.40;3.20;;;;;;;;;;5038966;28;20430;-67
2023/05/29 08:14:57;;;;;;;3.47;2.97;;;;;;;;;;5041709;28;20465;-67
2023/05/29 08:17:23;;;;;;;11.90;3.37;;;;;;;;;;5040115;28;20432;-67
2023/05/29 08:19:49;;;;;;;3.90;3.50;;;;;;;;;;5040506;28;20794;-68
2023/05/29 08:22:15;;;;;;;4.70;3.57;;;;;;;;;;5039976;28;20435;-68
2023/05/29 08:24:41;;;;;;;3.30;3.10;;;;;;;;;;5040484;28;20423;-67
2023/05/29 08:27:08;;;;;;;3.13;3.03;;;;;;;;;;5040914;28;20491;-68
2023/05/29 08:29:33;;;;;;;3.80;3.07;;;;;;;;;;5039731;28;20458;-68
2023/05/29 08:31:59;;;;;;;3.97;2.83;;;;;;;;;;5040652;28;20470;-68
2023/05/29 08:34:25;;;;;;;4.83;2.53;;;;;;;;;;5040624;28;20484;-68
2023/05/29 08:36:51;;;;;;;3.00;2.90;;;;;;;;;;5039755;28;20438;-68
2023/05/29 08:39:17;;;;;;;3.47;3.17;;;;;;;;;;5040051;28;20419;-67
2023/05/29 08:42:01;;;;;;;3.33;3.13;;;;;;;;;;5040048;28;20496;-68
2023/05/29 08:44:29;;;;;;;3.37;3.17;;;;;;;;;;5039893;28;20505;-68
2023/05/29 08:46:56;;;;;;;6.20;3.03;;;;;;;;;;5040209;28;20982;-68
2023/05/29 08:49:22;;;;;;;3.67;3.20;;;;;;;;;;5040415;28;20430;-68
2023/05/29 08:51:52;;;;;;;3.83;2.90;;;;;;;;;;5040203;28;20430;-67
2023/05/29 08:54:18;;;;;;;3.90;3.47;;;;;;;;;;5041719;28;20446;-68
2023/05/29 08:56:44;;;;;;;4.03;3.00;;;;;;;;;;5040859;28;20422;-68
2023/05/29 08:59:11;;;;;;;3.80;3.47;;;;;;;;;;5040328;28;20449;-68
2023/05/29 09:01:39;;;;;;;4.80;2.93;;;;;;;;;;5039409;28;20422;-68
2023/05/29 09:04:05;;;;;;;2.37;2.27;;;;;;;;;;5039791;28;20434;-68
2023/05/29 09:06:31;;;;;;;5.37;3.83;;;;;;;;;;5039315;28;20445;-68
2023/05/29 09:08:57;;;;;;;9.00;3.57;;;;;;;;;;5039995;28;20698;-68
2023/05/29 09:11:23;;;;;;;4.00;2.87;;;;;;;;;;5039210;28;20467;-67
2023/05/29 09:13:49;;;;;;;3.80;3.57;;;;;;;;;;5054905;28;20487;-68
2023/05/29 09:16:18;;;;;;;6.90;3.13;;;;;;;;;;5040156;28;20429;-68
2023/05/29 09:18:47;;;;;;;2.83;2.63;;;;;;;;;;5038219;28;20453;-68
2023/05/29 09:21:27;;;;;;;4.27;3.60;;;;;;;;;;5039850;28;20426;-68
2023/05/29 09:23:54;;;;;;;3.50;3.20;;;;;;;;;;5037274;28;21009;-68
2023/05/29 09:26:25;;;;;;;12.00;3.40;;;;;;;;;;5038821;28;20525;-66
2023/05/29 09:28:51;;;;;;;4.63;3.33;;;;;;;;;;5039327;28;20966;-68
2023/05/29 09:31:18;;;;;;;3.80;3.50;;;;;;;;;;5039312;28;20415;-68
2023/05/29 09:33:48;;;;;;;3.93;3.10;;;;;;;;;;5040450;28;20425;-68
2023/05/29 09:36:25;;;;;;;2.67;2.47;;;;;;;;;;5039516;28;20430;-68
2023/05/29 09:38:51;;;;;;;3.47;2.60;;;;;;;;;;5038556;28;20433;-68
2023/05/29 09:41:24;;;;;;;4.43;2.80;;;;;;;;;;5039195;28;20426;-68
2023/05/29 09:43:50;;;;;;;3.60;3.30;;;;;;;;;;5055538;28;21988;-66
2023/05/29 09:46:20;;;;;;;3.03;2.83;;;;;;;;;;5038971;28;20509;-64
2023/05/29 09:48:47;;;;;;;2.70;2.60;;;;;;;;;;5039318;28;20482;-64
2023/05/29 09:51:23;;;;;;;6.05;3.13;;;;;;;;;;5038409;28;20974;-65
2023/05/29 09:53:50;;;;;;;4.20;3.10;;;;;;;;;;5038383;28;20300;-65
2023/05/29 09:56:17;;;;;;;2.67;2.57;;;;;;;;;;5051744;28;20438;-65
2023/05/29 09:58:45;;;;;;;3.83;3.53;;;;;;;;;;5037589;28;20482;-67
2023/05/29 10:01:15;;;;;;;2.50;2.40;;;;;;;;;;5039035;28;20426;-67
2023/05/29 10:03:42;;;;;;;3.27;2.80;;;;;;;;;;5038742;28;20509;-67
2023/05/29 10:06:11;;;;;;;6.40;3.10;;;;;;;;;;5048408;28;20787;-68
2023/05/29 10:08:43;;;;;;;3.50;2.70;;;;;;;;;;5036400;28;20582;-68
2023/05/29 10:11:15;;;;;;;4.53;3.30;;;;;;;;;;5037582;28;20999;-68
2023/05/29 10:13:42;;;;;;;3.70;3.17;;;;;;;;;;5025821;28;20281;-67
2023/05/29 10:16:12;;;;;;;3.80;2.70;;;;;;;;;;5032899;28;20439;-66
2023/05/29 10:18:39;;;;;;;3.83;2.97;;;;;;;;;;5032832;28;20979;-67
2023/05/29 10:21:07;;;;;;;3.07;2.97;;;;;;;;;;5022894;28;20442;-67
2023/05/29 10:23:34;;;;;;;3.80;3.50;;;;;;;;;;5032881;28;20500;-68
2023/05/29 10:26:18;;;;;;;3.17;3.00;;;;;;;;;;5031284;28;20435;-68
2023/05/29 10:28:47;;;;;;;5.10;2.60;;;;;;;;;;5036803;28;20490;-67
2023/05/29 10:31:23;;;;;;;5.10;3.63;;;;;;;;;;5031865;28;20562;-68
2023/05/29 10:34:08;;;;;;;5.00;3.80;;;;;;;;;;5022737;28;20514;-68
2023/05/29 10:36:46;;;;;;;3.00;2.80;;;;;;;;;;5035097;28;21987;-68
2023/05/29 10:39:13;;;;;;;4.43;3.27;;;;;;;;;;5024017;28;20454;-68
2023/05/29 10:41:42;;;;;;;2.70;2.60;;;;;;;;;;5023016;28;20936;-68
2023/05/29 10:44:27;;;;;;;4.07;3.77;;;;;;;;;;5024305;28;20427;-68
2023/05/29 10:46:53;;;;;;;4.30;3.90;;;;;;;;;;5024155;28;20552;-68
2023/05/29 10:49:20;;;;;;;5.20;4.07;;;;;;;;;;5023540;28;21005;-68
2023/05/29 10:51:46;;;;;;;16.43;2.90;;;;;;;;;;5022799;28;20193;-67
2023/05/29 10:54:18;;;;;;;4.93;3.10;;;;;;;;;;5023728;28;20442;-68
2023/05/29 10:56:45;;;;;;;4.10;3.13;;;;;;;;;;5023184;28;21084;-68
2023/05/29 10:59:11;;;;;;;3.07;2.77;;;;;;;;;;5023239;28;20465;-68
2023/05/29 11:01:39;;;;;;;3.10;3.00;;;;;;;;;;5023166;28;20954;-68
2023/05/29 11:04:17;;;;;;;5.97;3.43;;;;;;;;;;5024182;28;20931;-68
2023/05/29 11:06:44;;;;;;;8.80;4.67;;;;;;;;;;5023256;28;20857;-68
2023/05/29 11:09:28;;;;;;;4.17;3.13;;;;;;;;;;5024152;28;20924;-69
2023/05/29 11:12:13;;;;;;;3.20;3.00;;;;;;;;;;5027409;28;20453;-68
2023/05/29 11:14:53;;;;;;;4.23;3.70;;;;;;;;;;5037304;28;20488;-68
2023/05/29 11:17:29;;;;;;;4.00;3.10;;;;;;;;;;5036467;28;20445;-67
2023/05/29 11:19:57;;;;;;;3.80;3.43;;;;;;;;;;5039190;28;20505;-67
2023/05/29 11:22:26;;;;;;;3.90;2.90;;;;;;;;;;5041001;28;22084;-67
2023/05/29 11:24:53;;;;;;;3.87;3.57;;;;;;;;;;5040922;28;20426;-68
2023/05/29 11:27:19;;;;;;;4.30;3.20;;;;;;;;;;5040870;28;20472;-67
2023/05/29 11:29:46;;;;;;;2.90;2.70;;;;;;;;;;5042147;28;20460;-67
2023/05/29 11:32:14;;;;;;;3.37;3.07;;;;;;;;;;5041779;28;20421;-67
2023/05/29 11:34:41;;;;;;;6.17;3.40;;;;;;;;;;5024669;28;20839;-67
2023/05/29 11:37:07;;;;;;;8.03;3.40;;;;;;;;;;5028686;28;20446;-67
2023/05/29 11:39:36;;;;;;;4.13;3.30;;;;;;;;;;5018949;28;20498;-67
2023/05/29 11:42:03;;;;;;;3.27;3.03;;;;;;;;;;5044733;28;20426;-67
2023/05/29 11:44:29;;;;;;;2.80;2.70;;;;;;;;;;5040335;28;20870;-68
2023/05/29 11:47:02;;;;;;;3.23;3.00;;;;;;;;;;5039680;28;20473;-69
2023/05/29 11:49:33;;;;;;;2.80;2.60;;;;;;;;;;5041294;28;20470;-67
2023/05/29 11:52:08;;;;;;;12.90;3.87;;;;;;;;;;5034516;28;20447;-69
2023/05/29 11:54:34;;;;;;;5.40;3.47;;;;;;;;;;5025684;28;20595;-67
2023/05/29 11:57:01;;;;;;;15.20;3.57;;;;;;;;;;5026093;28;20439;-68
2023/05/29 11:59:30;;;;;;;4.00;3.30;;;;;;;;;;5027072;28;20454;-68
2023/05/29 12:01:56;;;;;;;3.40;3.20;;;;;;;;;;5026338;28;20980;-66
2023/05/29 12:04:22;;;;;;;3.60;3.40;;;;;;;;;;5027018;28;21489;-68
2023/05/29 12:06:48;;;;;;;3.83;2.93;;;;;;;;;;5026221;28;20826;-68
2023/05/29 12:09:30;;;;;;;3.00;2.90;;;;;;;;;;5026278;28;20523;-67
2023/05/29 12:12:05;;;;;;;6.63;2.97;;;;;;;;;;5025734;28;20446;-67
2023/05/29 12:14:31;;;;;;;9.70;3.57;;;;;;;;;;5026724;28;20949;-67
2023/05/29 12:16:57;;;;;;;7.37;5.07;;;;;;;;;;5025910;28;20443;-68
2023/05/29 12:19:23;;;;;;;3.67;3.20;;;;;;;;;;5025760;28;20427;-67
2023/05/29 12:21:49;;;;;;;3.40;3.30;;;;;;;;;;5025307;28;20431;-67
2023/05/29 12:24:15;;;;;;;4.20;3.50;;;;;;;;;;5026322;28;20446;-68
2023/05/29 12:26:43;;;;;;;3.37;3.10;;;;;;;;;;5026192;28;20469;-68
2023/05/29 12:29:09;;;;;;;2.90;2.80;;;;;;;;;;5025939;28;20482;-67
2023/05/29 12:31:36;;;;;;;5.53;3.33;;;;;;;;;;5024469;28;20526;-69
2023/05/29 12:34:03;;;;;;;4.73;3.50;;;;;;;;;;5026019;28;20427;-69
2023/05/29 12:36:30;;;;;;;2.73;2.63;;;;;;;;;;5025805;28;20428;-68
2023/05/29 12:38:57;;;;;;;4.20;3.90;;;;;;;;;;5025620;28;20445;-68
2023/05/29 12:41:30;;;;;;;3.10;2.90;;;;;;;;;;5024399;28;20493;-68
2023/05/29 12:43:57;;;;;;;13.13;2.83;;;;;;;;;;5025818;28;20514;-68
2023/05/29 12:46:26;;;;;;;4.10;3.80;;;;;;;;;;5025425;28;20474;-68
2023/05/29 12:48:56;;;;;;;4.93;3.40;;;;;;;;;;5025679;28;20573;-68
2023/05/29 12:51:31;;;;;;;4.00;3.60;;;;;;;;;;5025222;28;20942;-69
2023/05/29 12:53:58;;;;;;;4.27;3.60;;;;;;;;;;5025989;28;20473;-68
2023/05/29 12:56:27;;;;;;;3.83;3.60;;;;;;;;;;5020765;28;20423;-68
2023/05/29 12:58:53;;;;;;;6.30;3.03;;;;;;;;;;5024834;28;20435;-68
2023/05/29 13:01:20;;;;;;;3.33;3.03;;;;;;;;;;5024175;28;20806;-68
2023/05/29 13:03:46;;;;;;;3.63;3.43;;;;;;;;;;5023997;28;20431;-68
2023/05/29 13:06:12;;;;;;;3.73;3.20;;;;;;;;;;5024952;28;20427;-69
2023/05/29 13:08:38;;;;;;;3.37;3.20;;;;;;;;;;5024530;28;20486;-68
2023/05/29 13:11:04;;;;;;;5.80;3.50;;;;;;;;;;5025145;28;20468;-68
2023/05/29 13:13:30;;;;;;;3.73;3.47;;;;;;;;;;5024920;28;20803;-69
2023/05/29 13:15:56;;;;;;;7.57;3.70;;;;;;;;;;5025572;28;20428;-68
2023/05/29 13:18:22;;;;;;;4.97;4.53;;;;;;;;;;5024425;28;20450;-68
2023/05/29 13:20:48;;;;;;;3.10;2.97;;;;;;;;;;5025056;28;20530;-69
2023/05/29 13:23:14;;;;;;;4.30;2.80;;;;;;;;;;5024539;28;20823;-68
2023/05/29 13:25:40;;;;;;;3.40;3.20;;;;;;;;;;5024755;28;20431;-68
2023/05/29 13:28:06;;;;;;;3.40;3.20;;;;;;;;;;5024396;28;20642;-68
2023/05/29 13:30:32;;;;;;;4.23;2.90;;;;;;;;;;5025276;28;20423;-68
2023/05/29 13:32:58;;;;;;;6.30;4.73;;;;;;;;;;5024872;28;20407;-68
2023/05/29 13:35:24;;;;;;;3.53;3.10;;;;;;;;;;5024249;28;20962;-68
2023/05/29 13:37:50;;;;;;;6.70;3.30;;;;;;;;;;5024173;28;21007;-68
2023/05/29 13:40:16;;;;;;;6.10;3.10;;;;;;;;;;5023400;28;20437;-69
2023/05/29 13:42:42;;;;;;;8.90;3.50;;;;;;;;;;5021609;28;20430;-69
2023/05/29 13:45:08;;;;;;;4.77;3.23;;;;;;;;;;5023983;28;20455;-69
2023/05/29 13:47:35;;;;;;;5.40;2.80;;;;;;;;;;5023022;28;20491;-69
2023/05/29 13:50:01;;;;;;;2.80;2.60;;;;;;;;;;5023435;28;20907;-69
2023/05/29 13:52:27;;;;;;;3.70;3.40;;;;;;;;;;5024524;28;20435;-69
2023/05/29 13:54:53;;;;;;;3.73;3.43;;;;;;;;;;5024673;28;20430;-69
2023/05/29 13:57:19;;;;;;;3.33;3.10;;;;;;;;;;5024419;28;20424;-69
2023/05/29 13:59:45;;;;;;;3.67;3.40;;;;;;;;;;5024358;28;20927;-69
2023/05/29 14:02:11;;;;;;;3.87;3.67;;;;;;;;;;5023981;28;20427;-69
2023/05/29 14:04:38;;;;;;;7.77;3.70;;;;;;;;;;5024150;28;20454;-69
2023/05/29 14:07:05;;;;;;;4.57;4.17;;;;;;;;;;5024381;28;20427;-69
2023/05/29 14:09:31;;;;;;;3.30;3.00;;;;;;;;;;5024354;28;20443;-69
2023/05/29 14:12:00;;;;;;;2.80;2.60;;;;;;;;;;5024124;28;20899;-69
2023/05/29 14:14:26;;;;;;;3.50;3.30;;;;;;;;;;5024421;28;20502;-69
2023/05/29 14:16:52;;;;;;;3.40;3.30;;;;;;;;;;5024251;28;20419;-69
2023/05/29 14:19:19;;;;;;;3.43;3.13;;;;;;;;;;5023922;28;20419;-68
2023/05/29 14:21:45;;;;;;;4.17;3.37;;;;;;;;;;5039108;28;20427;-69
2023/05/29 14:24:11;;;;;;;4.63;2.77;;;;;;;;;;5023961;28;20431;-68
2023/05/29 14:26:37;;;;;;;3.60;3.33;;;;;;;;;;5024230;28;20428;-69
2023/05/29 14:29:04;;;;;;;4.13;3.83;;;;;;;;;;5023442;28;20574;-69
2023/05/29 14:31:30;;;;;;;5.33;3.40;;;;;;;;;;5023729;28;20423;-68
2023/05/29 14:33:56;;;;;;;3.63;3.40;;;;;;;;;;5023662;28;20764;-68
2023/05/29 14:36:22;;;;;;;2.80;2.67;;;;;;;;;;5024184;28;20426;-69
2023/05/29 14:38:49;;;;;;;3.83;3.53;;;;;;;;;;5023573;28;21023;-68
2023/05/29 14:41:15;;;;;;;4.93;3.60;;;;;;;;;;5023740;28;20939;-68
2023/05/29 14:43:42;;;;;;;3.23;3.03;;;;;;;;;;5024044;28;20477;-68